sensor_id;sensor_type;location;lat;lon;timestamp;P1;durP1;ratioP1;P2;durP2;ratioP2
37455;SDS011;23316;50.718;7.328;2023-06-14T00:01:46;6.80;;;4.03;;
37455;SDS011;23316;50.718;7.328;2023-06-14T00:04:14;4.70;;;3.67;;
37455;SDS011;23316;50.718;7.328;2023-06-14T00:06:44;5.78;;;4.10;;
37455;SDS011;23316;50.718;7.328;2023-06-14T00:09:11;5.18;;;4.10;;
37455;SDS011;23316;50.718;7.328;2023-06-14T00:11:39;5.93;;;4.13;;
37455;SDS011;23316;50.718;7.328;2023-06-14T00:14:07;9.40;;;3.95;;
37455;SDS011;23316;50.718;7.328;2023-06-14T00:16:34;6.47;;;4.40;;
37455;SDS011;23316;50.718;7.328;2023-06-14T00:19:02;7.90;;;4.65;;
37455;SDS011;23316;50.718;7.328;2023-06-14T00:21:30;5.97;;;4.10;;
37455;SDS011;23316;50.718;7.328;2023-06-14T00:23:58;6.50;;;4.32;;
37455;SDS011;23316;50.718;7.328;2023-06-14T00:26:26;5.60;;;3.47;;
37455;SDS011;23316;50.718;7.328;2023-06-14T00:28:53;5.28;;;3.75;;
37455;SDS011;23316;50.718;7.328;2023-06-14T00:31:22;7.20;;;4.40;;
37455;SDS011;23316;50.718;7.328;2023-06-14T00:33:49;4.90;;;3.83;;
37455;SDS011;23316;50.718;7.328;2023-06-14T00:36:16;13.23;;;4.00;;
37455;SDS011;23316;50.718;7.328;2023-06-14T00:38:43;7.43;;;4.28;;
37455;SDS011;23316;50.718;7.328;2023-06-14T00:41:12;5.55;;;3.92;;
37455;SDS011;23316;50.718;7.328;2023-06-14T00:43:39;5.70;;;4.30;;
37455;SDS011;23316;50.718;7.328;2023-06-14T00:46:06;5.13;;;3.78;;
37455;SDS011;23316;50.718;7.328;2023-06-14T00:48:34;7.05;;;4.55;;
37455;SDS011;23316;50.718;7.328;2023-06-14T00:51:03;9.57;;;4.15;;
37455;SDS011;23316;50.718;7.328;2023-06-14T00:53:31;6.00;;;4.30;;
37455;SDS011;23316;50.718;7.328;2023-06-14T00:56:01;5.97;;;3.67;;
37455;SDS011;23316;50.718;7.328;2023-06-14T00:58:30;10.63;;;4.50;;
37455;SDS011;23316;50.718;7.328;2023-06-14T01:00:58;5.60;;;3.63;;
37455;SDS011;23316;50.718;7.328;2023-06-14T01:03:26;5.40;;;3.58;;
37455;SDS011;23316;50.718;7.328;2023-06-14T01:05:56;5.07;;;3.72;;
37455;SDS011;23316;50.718;7.328;2023-06-14T01:08:31;6.38;;;4.03;;
37455;SDS011;23316;50.718;7.328;2023-06-14T01:11:10;6.13;;;3.70;;
37455;SDS011;23316;50.718;7.328;2023-06-14T01:13:45;9.50;;;4.13;;
37455;SDS011;23316;50.718;7.328;2023-06-14T01:16:13;5.90;;;4.20;;
37455;SDS011;23316;50.718;7.328;2023-06-14T01:18:41;4.57;;;3.75;;
37455;SDS011;23316;50.718;7.328;2023-06-14T01:21:22;4.90;;;3.75;;
37455;SDS011;23316;50.718;7.328;2023-06-14T01:23:52;7.60;;;3.70;;
37455;SDS011;23316;50.718;7.328;2023-06-14T01:26:20;4.50;;;3.65;;
37455;SDS011;23316;50.718;7.328;2023-06-14T01:28:48;8.57;;;4.32;;
37455;SDS011;23316;50.718;7.328;2023-06-14T01:31:20;8.13;;;4.20;;
37455;SDS011;23316;50.718;7.328;2023-06-14T01:33:49;4.93;;;3.72;;
37455;SDS011;23316;50.718;7.328;2023-06-14T01:36:18;4.85;;;4.00;;
37455;SDS011;23316;50.718;7.328;2023-06-14T01:38:46;5.22;;;3.55;;
37455;SDS011;23316;50.718;7.328;2023-06-14T01:41:16;5.75;;;3.72;;
37455;SDS011;23316;50.718;7.328;2023-06-14T01:43:45;7.38;;;4.03;;
37455;SDS011;23316;50.718;7.328;2023-06-14T01:46:15;8.38;;;4.32;;
37455;SDS011;23316;50.718;7.328;2023-06-14T01:48:43;6.07;;;4.20;;
37455;SDS011;23316;50.718;7.328;2023-06-14T01:51:10;10.77;;;3.97;;
37455;SDS011;23316;50.718;7.328;2023-06-14T01:53:37;5.32;;;4.05;;
37455;SDS011;23316;50.718;7.328;2023-06-14T01:56:05;8.48;;;3.63;;
37455;SDS011;23316;50.718;7.328;2023-06-14T01:58:34;5.60;;;3.50;;
37455;SDS011;23316;50.718;7.328;2023-06-14T02:01:02;8.38;;;4.20;;
37455;SDS011;23316;50.718;7.328;2023-06-14T02:03:30;7.32;;;4.13;;
37455;SDS011;23316;50.718;7.328;2023-06-14T02:05:58;4.47;;;3.53;;
37455;SDS011;23316;50.718;7.328;2023-06-14T02:08:25;6.85;;;3.85;;
37455;SDS011;23316;50.718;7.328;2023-06-14T02:10:52;7.75;;;4.55;;
37455;SDS011;23316;50.718;7.328;2023-06-14T02:13:20;5.63;;;3.80;;
37455;SDS011;23316;50.718;7.328;2023-06-14T02:16:09;5.07;;;3.45;;
37455;SDS011;23316;50.718;7.328;2023-06-14T02:18:36;6.97;;;3.63;;
37455;SDS011;23316;50.718;7.328;2023-06-14T02:21:04;8.02;;;3.92;;
37455;SDS011;23316;50.718;7.328;2023-06-14T02:23:31;6.03;;;3.65;;
37455;SDS011;23316;50.718;7.328;2023-06-14T02:25:59;7.68;;;3.35;;
37455;SDS011;23316;50.718;7.328;2023-06-14T02:28:26;6.60;;;3.83;;
37455;SDS011;23316;50.718;7.328;2023-06-14T02:30:53;4.63;;;3.50;;
37455;SDS011;23316;50.718;7.328;2023-06-14T02:33:22;6.57;;;3.80;;
37455;SDS011;23316;50.718;7.328;2023-06-14T02:35:50;6.05;;;3.63;;
37455;SDS011;23316;50.718;7.328;2023-06-14T02:38:18;12.27;;;4.40;;
37455;SDS011;23316;50.718;7.328;2023-06-14T02:40:46;5.82;;;3.78;;
37455;SDS011;23316;50.718;7.328;2023-06-14T02:43:13;8.57;;;4.93;;
37455;SDS011;23316;50.718;7.328;2023-06-14T02:45:42;7.28;;;3.90;;
37455;SDS011;23316;50.718;7.328;2023-06-14T02:48:10;6.18;;;4.18;;
37455;SDS011;23316;50.718;7.328;2023-06-14T02:50:39;6.53;;;4.15;;
37455;SDS011;23316;50.718;7.328;2023-06-14T02:53:06;5.63;;;3.97;;
37455;SDS011;23316;50.718;7.328;2023-06-14T02:55:33;5.57;;;3.63;;
37455;SDS011;23316;50.718;7.328;2023-06-14T02:58:05;8.45;;;4.15;;
37455;SDS011;23316;50.718;7.328;2023-06-14T03:00:33;6.97;;;4.60;;
37455;SDS011;23316;50.718;7.328;2023-06-14T03:03:00;5.47;;;3.92;;
37455;SDS011;23316;50.718;7.328;2023-06-14T03:05:28;6.10;;;4.05;;
37455;SDS011;23316;50.718;7.328;2023-06-14T03:07:56;6.38;;;4.07;;
37455;SDS011;23316;50.718;7.328;2023-06-14T03:10:24;6.03;;;3.63;;
37455;SDS011;23316;50.718;7.328;2023-06-14T03:12:54;9.98;;;4.47;;
37455;SDS011;23316;50.718;7.328;2023-06-14T03:15:21;6.63;;;3.70;;
37455;SDS011;23316;50.718;7.328;2023-06-14T03:17:50;5.53;;;3.80;;
37455;SDS011;23316;50.718;7.328;2023-06-14T03:20:19;7.25;;;4.47;;
37455;SDS011;23316;50.718;7.328;2023-06-14T03:22:46;6.35;;;4.25;;
37455;SDS011;23316;50.718;7.328;2023-06-14T03:25:15;7.57;;;4.32;;
37455;SDS011;23316;50.718;7.328;2023-06-14T03:27:44;7.85;;;4.72;;
37455;SDS011;23316;50.718;7.328;2023-06-14T03:30:11;6.88;;;4.05;;
37455;SDS011;23316;50.718;7.328;2023-06-14T03:32:39;5.07;;;3.92;;
37455;SDS011;23316;50.718;7.328;2023-06-14T03:35:11;6.57;;;3.90;;
37455;SDS011;23316;50.718;7.328;2023-06-14T03:37:42;4.63;;;3.63;;
37455;SDS011;23316;50.718;7.328;2023-06-14T03:40:10;5.45;;;3.45;;
37455;SDS011;23316;50.718;7.328;2023-06-14T03:42:40;6.10;;;3.55;;
37455;SDS011;23316;50.718;7.328;2023-06-14T03:45:07;8.05;;;3.95;;
37455;SDS011;23316;50.718;7.328;2023-06-14T03:47:35;9.20;;;3.95;;
37455;SDS011;23316;50.718;7.328;2023-06-14T03:50:03;36.80;;;20.23;;
37455;SDS011;23316;50.718;7.328;2023-06-14T03:52:31;27.92;;;16.83;;
37455;SDS011;23316;50.718;7.328;2023-06-14T03:54:59;13.23;;;8.23;;
37455;SDS011;23316;50.718;7.328;2023-06-14T03:57:26;9.73;;;5.00;;
37455;SDS011;23316;50.718;7.328;2023-06-14T03:59:55;5.55;;;3.88;;
37455;SDS011;23316;50.718;7.328;2023-06-14T04:02:22;5.88;;;3.88;;
37455;SDS011;23316;50.718;7.328;2023-06-14T04:04:50;5.43;;;4.28;;
37455;SDS011;23316;50.718;7.328;2023-06-14T04:07:19;5.75;;;3.78;;
37455;SDS011;23316;50.718;7.328;2023-06-14T04:09:47;4.53;;;3.53;;
37455;SDS011;23316;50.718;7.328;2023-06-14T04:12:15;6.40;;;3.65;;
37455;SDS011;23316;50.718;7.328;2023-06-14T04:14:42;7.40;;;4.10;;
37455;SDS011;23316;50.718;7.328;2023-06-14T04:17:11;6.40;;;4.45;;
37455;SDS011;23316;50.718;7.328;2023-06-14T04:19:38;4.78;;;3.65;;
37455;SDS011;23316;50.718;7.328;2023-06-14T04:22:06;4.93;;;3.38;;
37455;SDS011;23316;50.718;7.328;2023-06-14T04:24:34;6.03;;;4.15;;
37455;SDS011;23316;50.718;7.328;2023-06-14T04:27:01;4.85;;;3.55;;
37455;SDS011;23316;50.718;7.328;2023-06-14T04:29:29;10.05;;;4.15;;
37455;SDS011;23316;50.718;7.328;2023-06-14T04:31:56;5.80;;;3.88;;
37455;SDS011;23316;50.718;7.328;2023-06-14T04:34:27;5.38;;;3.33;;
37455;SDS011;23316;50.718;7.328;2023-06-14T04:36:57;4.65;;;3.30;;
37455;SDS011;23316;50.718;7.328;2023-06-14T04:39:25;7.90;;;5.00;;
37455;SDS011;23316;50.718;7.328;2023-06-14T04:41:53;10.75;;;5.70;;
37455;SDS011;23316;50.718;7.328;2023-06-14T04:44:22;5.68;;;4.00;;
37455;SDS011;23316;50.718;7.328;2023-06-14T04:46:55;7.45;;;3.72;;
37455;SDS011;23316;50.718;7.328;2023-06-14T04:49:24;6.05;;;3.67;;
37455;SDS011;23316;50.718;7.328;2023-06-14T04:51:56;5.93;;;3.72;;
37455;SDS011;23316;50.718;7.328;2023-06-14T04:54:24;6.93;;;3.28;;
37455;SDS011;23316;50.718;7.328;2023-06-14T04:56:52;5.72;;;3.53;;
37455;SDS011;23316;50.718;7.328;2023-06-14T04:59:20;7.03;;;4.10;;
37455;SDS011;23316;50.718;7.328;2023-06-14T05:01:48;6.97;;;3.58;;
37455;SDS011;23316;50.718;7.328;2023-06-14T05:04:16;4.53;;;3.15;;
37455;SDS011;23316;50.718;7.328;2023-06-14T05:06:52;4.97;;;3.38;;
37455;SDS011;23316;50.718;7.328;2023-06-14T05:09:24;6.53;;;3.70;;
37455;SDS011;23316;50.718;7.328;2023-06-14T05:11:51;5.20;;;3.67;;
37455;SDS011;23316;50.718;7.328;2023-06-14T05:14:19;5.07;;;3.40;;
37455;SDS011;23316;50.718;7.328;2023-06-14T05:16:47;4.47;;;3.22;;
37455;SDS011;23316;50.718;7.328;2023-06-14T05:19:15;6.32;;;3.60;;
37455;SDS011;23316;50.718;7.328;2023-06-14T05:21:43;19.02;;;5.28;;
37455;SDS011;23316;50.718;7.328;2023-06-14T05:24:12;7.95;;;3.40;;
37455;SDS011;23316;50.718;7.328;2023-06-14T05:26:40;5.43;;;3.47;;
37455;SDS011;23316;50.718;7.328;2023-06-14T05:29:07;4.20;;;3.10;;
37455;SDS011;23316;50.718;7.328;2023-06-14T05:31:34;6.47;;;3.05;;
37455;SDS011;23316;50.718;7.328;2023-06-14T05:34:02;5.82;;;3.38;;
37455;SDS011;23316;50.718;7.328;2023-06-14T05:36:29;6.13;;;3.35;;
37455;SDS011;23316;50.718;7.328;2023-06-14T05:38:57;9.55;;;3.30;;
37455;SDS011;23316;50.718;7.328;2023-06-14T05:41:26;6.35;;;3.28;;
37455;SDS011;23316;50.718;7.328;2023-06-14T05:43:54;7.60;;;3.45;;
37455;SDS011;23316;50.718;7.328;2023-06-14T05:46:22;5.38;;;3.65;;
37455;SDS011;23316;50.718;7.328;2023-06-14T05:48:51;4.75;;;3.17;;
37455;SDS011;23316;50.718;7.328;2023-06-14T05:51:18;5.45;;;3.03;;
37455;SDS011;23316;50.718;7.328;2023-06-14T05:53:45;5.13;;;3.22;;
37455;SDS011;23316;50.718;7.328;2023-06-14T05:56:13;7.70;;;2.90;;
37455;SDS011;23316;50.718;7.328;2023-06-14T05:58:42;5.32;;;3.17;;
37455;SDS011;23316;50.718;7.328;2023-06-14T06:01:09;3.17;;;2.63;;
37455;SDS011;23316;50.718;7.328;2023-06-14T06:03:37;7.53;;;3.50;;
37455;SDS011;23316;50.718;7.328;2023-06-14T06:06:04;4.22;;;2.75;;
37455;SDS011;23316;50.718;7.328;2023-06-14T06:08:31;7.57;;;3.13;;
37455;SDS011;23316;50.718;7.328;2023-06-14T06:11:00;5.32;;;3.60;;
37455;SDS011;23316;50.718;7.328;2023-06-14T06:13:28;7.85;;;3.10;;
37455;SDS011;23316;50.718;7.328;2023-06-14T06:15:57;5.90;;;3.20;;
37455;SDS011;23316;50.718;7.328;2023-06-14T06:18:24;7.90;;;3.13;;
37455;SDS011;23316;50.718;7.328;2023-06-14T06:20:52;7.53;;;4.28;;
37455;SDS011;23316;50.718;7.328;2023-06-14T06:23:19;6.35;;;3.63;;
37455;SDS011;23316;50.718;7.328;2023-06-14T06:25:46;5.93;;;3.05;;
37455;SDS011;23316;50.718;7.328;2023-06-14T06:28:13;8.77;;;3.05;;
37455;SDS011;23316;50.718;7.328;2023-06-14T06:30:41;5.43;;;2.70;;
37455;SDS011;23316;50.718;7.328;2023-06-14T06:33:09;3.22;;;2.40;;
37455;SDS011;23316;50.718;7.328;2023-06-14T06:35:37;4.60;;;2.55;;
37455;SDS011;23316;50.718;7.328;2023-06-14T06:38:04;6.90;;;3.00;;
37455;SDS011;23316;50.718;7.328;2023-06-14T06:40:32;3.60;;;2.70;;
37455;SDS011;23316;50.718;7.328;2023-06-14T06:42:59;4.03;;;2.80;;
37455;SDS011;23316;50.718;7.328;2023-06-14T06:45:26;6.93;;;2.90;;
37455;SDS011;23316;50.718;7.328;2023-06-14T06:47:53;25.80;;;3.85;;
37455;SDS011;23316;50.718;7.328;2023-06-14T06:50:22;6.20;;;2.45;;
37455;SDS011;23316;50.718;7.328;2023-06-14T06:52:50;4.53;;;2.53;;
37455;SDS011;23316;50.718;7.328;2023-06-14T06:55:18;5.95;;;2.70;;
37455;SDS011;23316;50.718;7.328;2023-06-14T06:57:49;5.43;;;2.53;;
37455;SDS011;23316;50.718;7.328;2023-06-14T07:00:18;4.85;;;2.38;;
37455;SDS011;23316;50.718;7.328;2023-06-14T07:02:45;4.72;;;2.28;;
37455;SDS011;23316;50.718;7.328;2023-06-14T07:05:13;6.57;;;2.70;;
37455;SDS011;23316;50.718;7.328;2023-06-14T07:07:42;3.25;;;2.13;;
37455;SDS011;23316;50.718;7.328;2023-06-14T07:10:09;6.38;;;2.40;;
37455;SDS011;23316;50.718;7.328;2023-06-14T07:12:36;3.58;;;2.28;;
37455;SDS011;23316;50.718;7.328;2023-06-14T07:15:05;5.75;;;2.20;;
37455;SDS011;23316;50.718;7.328;2023-06-14T07:17:34;3.25;;;2.20;;
37455;SDS011;23316;50.718;7.328;2023-06-14T07:20:02;2.72;;;2.10;;
37455;SDS011;23316;50.718;7.328;2023-06-14T07:22:39;3.85;;;1.98;;
37455;SDS011;23316;50.718;7.328;2023-06-14T07:25:09;6.20;;;2.63;;
37455;SDS011;23316;50.718;7.328;2023-06-14T07:27:39;5.57;;;2.10;;
37455;SDS011;23316;50.718;7.328;2023-06-14T07:30:07;5.93;;;2.42;;
37455;SDS011;23316;50.718;7.328;2023-06-14T07:32:35;3.90;;;2.15;;
37455;SDS011;23316;50.718;7.328;2023-06-14T07:35:03;4.07;;;2.38;;
37455;SDS011;23316;50.718;7.328;2023-06-14T07:37:32;5.90;;;2.30;;
37455;SDS011;23316;50.718;7.328;2023-06-14T07:39:59;4.90;;;2.58;;
37455;SDS011;23316;50.718;7.328;2023-06-14T07:42:30;4.32;;;1.75;;
37455;SDS011;23316;50.718;7.328;2023-06-14T07:44:57;4.13;;;2.50;;
37455;SDS011;23316;50.718;7.328;2023-06-14T07:47:25;6.75;;;1.98;;
37455;SDS011;23316;50.718;7.328;2023-06-14T07:49:52;4.28;;;2.00;;
37455;SDS011;23316;50.718;7.328;2023-06-14T07:52:19;3.30;;;1.80;;
37455;SDS011;23316;50.718;7.328;2023-06-14T07:54:47;4.72;;;1.98;;
37455;SDS011;23316;50.718;7.328;2023-06-14T07:57:14;5.50;;;1.75;;
37455;SDS011;23316;50.718;7.328;2023-06-14T07:59:43;2.47;;;1.80;;
37455;SDS011;23316;50.718;7.328;2023-06-14T08:02:10;5.45;;;1.70;;
37455;SDS011;23316;50.718;7.328;2023-06-14T08:04:37;4.13;;;1.80;;
37455;SDS011;23316;50.718;7.328;2023-06-14T08:07:06;5.80;;;1.83;;
37455;SDS011;23316;50.718;7.328;2023-06-14T08:09:33;4.82;;;1.70;;
37455;SDS011;23316;50.718;7.328;2023-06-14T08:12:03;8.70;;;1.73;;
37455;SDS011;23316;50.718;7.328;2023-06-14T08:14:32;3.72;;;2.40;;
37455;SDS011;23316;50.718;7.328;2023-06-14T08:17:01;3.15;;;2.10;;
37455;SDS011;23316;50.718;7.328;2023-06-14T08:19:28;3.08;;;2.17;;
37455;SDS011;23316;50.718;7.328;2023-06-14T08:21:56;5.10;;;1.83;;
37455;SDS011;23316;50.718;7.328;2023-06-14T08:24:24;62.40;;;5.95;;
37455;SDS011;23316;50.718;7.328;2023-06-14T08:26:52;3.10;;;1.70;;
37455;SDS011;23316;50.718;7.328;2023-06-14T08:29:19;3.58;;;1.70;;
37455;SDS011;23316;50.718;7.328;2023-06-14T08:31:47;3.53;;;1.70;;
37455;SDS011;23316;50.718;7.328;2023-06-14T08:34:15;4.07;;;1.60;;
37455;SDS011;23316;50.718;7.328;2023-06-14T08:36:43;2.67;;;1.67;;
37455;SDS011;23316;50.718;7.328;2023-06-14T08:39:10;4.50;;;1.98;;
37455;SDS011;23316;50.718;7.328;2023-06-14T08:41:37;2.22;;;1.67;;
37455;SDS011;23316;50.718;7.328;2023-06-14T08:44:04;4.70;;;1.60;;
37455;SDS011;23316;50.718;7.328;2023-06-14T08:46:32;3.60;;;2.00;;
37455;SDS011;23316;50.718;7.328;2023-06-14T08:49:00;3.63;;;1.67;;
37455;SDS011;23316;50.718;7.328;2023-06-14T08:51:32;2.17;;;1.55;;
37455;SDS011;23316;50.718;7.328;2023-06-14T08:54:02;3.75;;;2.03;;
37455;SDS011;23316;50.718;7.328;2023-06-14T08:56:30;3.80;;;1.50;;
37455;SDS011;23316;50.718;7.328;2023-06-14T08:58:59;2.83;;;1.48;;
37455;SDS011;23316;50.718;7.328;2023-06-14T09:01:28;2.38;;;1.40;;
37455;SDS011;23316;50.718;7.328;2023-06-14T09:03:58;2.38;;;1.30;;
37455;SDS011;23316;50.718;7.328;2023-06-14T09:06:25;2.45;;;1.58;;
37455;SDS011;23316;50.718;7.328;2023-06-14T09:08:55;3.25;;;1.63;;
37455;SDS011;23316;50.718;7.328;2023-06-14T09:11:23;4.82;;;1.50;;
37455;SDS011;23316;50.718;7.328;2023-06-14T09:13:52;3.67;;;1.30;;
37455;SDS011;23316;50.718;7.328;2023-06-14T09:16:19;4.10;;;1.80;;
37455;SDS011;23316;50.718;7.328;2023-06-14T09:18:47;5.72;;;1.70;;
37455;SDS011;23316;50.718;7.328;2023-06-14T09:21:15;2.83;;;1.50;;
37455;SDS011;23316;50.718;7.328;2023-06-14T09:23:44;6.05;;;1.80;;
37455;SDS011;23316;50.718;7.328;2023-06-14T09:26:14;3.33;;;1.75;;
37455;SDS011;23316;50.718;7.328;2023-06-14T09:28:42;4.75;;;1.75;;
37455;SDS011;23316;50.718;7.328;2023-06-14T09:31:10;2.97;;;1.90;;
37455;SDS011;23316;50.718;7.328;2023-06-14T09:33:38;2.40;;;1.73;;
37455;SDS011;23316;50.718;7.328;2023-06-14T09:36:09;3.05;;;1.55;;
37455;SDS011;23316;50.718;7.328;2023-06-14T09:38:39;3.85;;;1.77;;
37455;SDS011;23316;50.718;7.328;2023-06-14T09:41:07;2.50;;;1.63;;
37455;SDS011;23316;50.718;7.328;2023-06-14T09:43:36;2.28;;;1.55;;
37455;SDS011;23316;50.718;7.328;2023-06-14T09:46:04;4.85;;;1.95;;
37455;SDS011;23316;50.718;7.328;2023-06-14T09:48:33;3.08;;;1.80;;
37455;SDS011;23316;50.718;7.328;2023-06-14T09:51:00;7.32;;;1.95;;
37455;SDS011;23316;50.718;7.328;2023-06-14T09:53:29;2.55;;;1.77;;
37455;SDS011;23316;50.718;7.328;2023-06-14T09:55:57;5.05;;;1.60;;
37455;SDS011;23316;50.718;7.328;2023-06-14T09:58:26;2.83;;;1.52;;
37455;SDS011;23316;50.718;7.328;2023-06-14T10:00:56;3.15;;;1.70;;
37455;SDS011;23316;50.718;7.328;2023-06-14T10:03:25;3.30;;;1.50;;
37455;SDS011;23316;50.718;7.328;2023-06-14T10:05:55;2.42;;;1.73;;
37455;SDS011;23316;50.718;7.328;2023-06-14T10:08:27;2.25;;;1.55;;
37455;SDS011;23316;50.718;7.328;2023-06-14T10:10:58;4.07;;;1.40;;
37455;SDS011;23316;50.718;7.328;2023-06-14T10:13:25;2.10;;;1.50;;
37455;SDS011;23316;50.718;7.328;2023-06-14T10:15:57;2.22;;;1.25;;
37455;SDS011;23316;50.718;7.328;2023-06-14T10:18:33;2.70;;;1.42;;
37455;SDS011;23316;50.718;7.328;2023-06-14T10:21:08;3.42;;;1.50;;
37455;SDS011;23316;50.718;7.328;2023-06-14T10:23:44;2.13;;;1.40;;
37455;SDS011;23316;50.718;7.328;2023-06-14T10:26:20;3.10;;;1.95;;
37455;SDS011;23316;50.718;7.328;2023-06-14T10:28:55;3.03;;;1.50;;
37455;SDS011;23316;50.718;7.328;2023-06-14T10:31:32;1.50;;;1.30;;
37455;SDS011;23316;50.718;7.328;2023-06-14T10:34:07;1.50;;;1.00;;
37455;SDS011;23316;50.718;7.328;2023-06-14T10:36:35;1.65;;;1.38;;
37455;SDS011;23316;50.718;7.328;2023-06-14T10:39:05;2.88;;;1.50;;
37455;SDS011;23316;50.718;7.328;2023-06-14T10:41:34;6.88;;;1.33;;
37455;SDS011;23316;50.718;7.328;2023-06-14T10:47:21;1.77;;;1.25;;
37455;SDS011;23316;50.718;7.328;2023-06-14T10:49:51;1.92;;;1.23;;
37455;SDS011;23316;50.718;7.328;2023-06-14T10:52:21;1.88;;;1.38;;
37455;SDS011;23316;50.718;7.328;2023-06-14T10:55:00;1.77;;;1.30;;
37455;SDS011;23316;50.718;7.328;2023-06-14T10:57:29;3.10;;;0.98;;
37455;SDS011;23316;50.718;7.328;2023-06-14T10:59:58;3.20;;;1.45;;
37455;SDS011;23316;50.718;7.328;2023-06-14T11:02:39;1.65;;;1.00;;
37455;SDS011;23316;50.718;7.328;2023-06-14T11:05:23;1.35;;;1.15;;
37455;SDS011;23316;50.718;7.328;2023-06-14T11:07:55;1.60;;;1.00;;
37455;SDS011;23316;50.718;7.328;2023-06-14T11:10:37;4.22;;;1.08;;
37455;SDS011;23316;50.718;7.328;2023-06-14T11:13:05;2.42;;;1.25;;
37455;SDS011;23316;50.718;7.328;2023-06-14T11:15:34;1.58;;;1.10;;
37455;SDS011;23316;50.718;7.328;2023-06-14T11:18:04;4.50;;;1.45;;
37455;SDS011;23316;50.718;7.328;2023-06-14T11:20:33;4.28;;;1.35;;
37455;SDS011;23316;50.718;7.328;2023-06-14T11:23:03;1.63;;;1.08;;
37455;SDS011;23316;50.718;7.328;2023-06-14T11:25:31;1.52;;;1.00;;
37455;SDS011;23316;50.718;7.328;2023-06-14T11:27:58;2.17;;;1.35;;
37455;SDS011;23316;50.718;7.328;2023-06-14T11:30:26;1.83;;;1.10;;
37455;SDS011;23316;50.718;7.328;2023-06-14T11:32:54;2.28;;;1.30;;
37455;SDS011;23316;50.718;7.328;2023-06-14T11:35:24;3.35;;;1.30;;
37455;SDS011;23316;50.718;7.328;2023-06-14T11:37:52;2.58;;;1.20;;
37455;SDS011;23316;50.718;7.328;2023-06-14T11:40:22;1.55;;;1.17;;
37455;SDS011;23316;50.718;7.328;2023-06-14T11:42:58;3.13;;;1.40;;
37455;SDS011;23316;50.718;7.328;2023-06-14T11:45:27;1.35;;;1.13;;
37455;SDS011;23316;50.718;7.328;2023-06-14T11:47:56;5.22;;;1.30;;
37455;SDS011;23316;50.718;7.328;2023-06-14T11:50:27;1.27;;;0.73;;
37455;SDS011;23316;50.718;7.328;2023-06-14T11:52:55;1.30;;;1.13;;
37455;SDS011;23316;50.718;7.328;2023-06-14T11:55:28;1.00;;;0.90;;
37455;SDS011;23316;50.718;7.328;2023-06-14T11:57:56;3.80;;;1.20;;
37455;SDS011;23316;50.718;7.328;2023-06-14T12:00:24;2.38;;;1.10;;
37455;SDS011;23316;50.718;7.328;2023-06-14T12:02:53;1.48;;;1.15;;
37455;SDS011;23316;50.718;7.328;2023-06-14T12:05:21;3.15;;;1.55;;
37455;SDS011;23316;50.718;7.328;2023-06-14T12:07:57;6.30;;;1.20;;
37455;SDS011;23316;50.718;7.328;2023-06-14T12:10:25;1.60;;;1.10;;
37455;SDS011;23316;50.718;7.328;2023-06-14T12:12:56;2.25;;;1.00;;
37455;SDS011;23316;50.718;7.328;2023-06-14T12:15:24;1.98;;;1.15;;
37455;SDS011;23316;50.718;7.328;2023-06-14T12:17:55;1.10;;;1.00;;
37455;SDS011;23316;50.718;7.328;2023-06-14T12:20:28;1.63;;;1.10;;
37455;SDS011;23316;50.718;7.328;2023-06-14T12:22:58;2.03;;;1.23;;
37455;SDS011;23316;50.718;7.328;2023-06-14T12:25:28;1.58;;;1.40;;
37455;SDS011;23316;50.718;7.328;2023-06-14T12:27:58;9.60;;;1.40;;
37455;SDS011;23316;50.718;7.328;2023-06-14T12:30:25;2.05;;;1.38;;
37455;SDS011;23316;50.718;7.328;2023-06-14T12:32:53;2.60;;;1.42;;
37455;SDS011;23316;50.718;7.328;2023-06-14T12:35:20;1.70;;;1.40;;
37455;SDS011;23316;50.718;7.328;2023-06-14T12:37:47;2.38;;;1.30;;
37455;SDS011;23316;50.718;7.328;2023-06-14T12:40:16;4.10;;;1.40;;
37455;SDS011;23316;50.718;7.328;2023-06-14T12:42:44;3.15;;;1.52;;
37455;SDS011;23316;50.718;7.328;2023-06-14T12:45:12;4.65;;;1.50;;
37455;SDS011;23316;50.718;7.328;2023-06-14T12:47:40;4.22;;;1.60;;
37455;SDS011;23316;50.718;7.328;2023-06-14T12:50:07;2.83;;;1.83;;
37455;SDS011;23316;50.718;7.328;2023-06-14T12:52:35;1.40;;;1.30;;
37455;SDS011;23316;50.718;7.328;2023-06-14T12:55:03;1.73;;;1.40;;
37455;SDS011;23316;50.718;7.328;2023-06-14T12:57:32;2.17;;;1.40;;
37455;SDS011;23316;50.718;7.328;2023-06-14T13:00:02;1.42;;;1.33;;
37455;SDS011;23316;50.718;7.328;2023-06-14T13:02:30;2.35;;;1.38;;
37455;SDS011;23316;50.718;7.328;2023-06-14T13:04:59;3.20;;;1.67;;
37455;SDS011;23316;50.718;7.328;2023-06-14T13:07:29;1.63;;;1.40;;
37455;SDS011;23316;50.718;7.328;2023-06-14T13:09:56;2.53;;;1.70;;
37455;SDS011;23316;50.718;7.328;2023-06-14T13:12:23;7.07;;;1.58;;
37455;SDS011;23316;50.718;7.328;2023-06-14T13:14:52;3.33;;;1.85;;
37455;SDS011;23316;50.718;7.328;2023-06-14T13:17:19;2.80;;;1.42;;
37455;SDS011;23316;50.718;7.328;2023-06-14T13:19:47;4.32;;;1.70;;
37455;SDS011;23316;50.718;7.328;2023-06-14T13:22:14;3.40;;;1.60;;
37455;SDS011;23316;50.718;7.328;2023-06-14T13:24:41;3.22;;;1.50;;
37455;SDS011;23316;50.718;7.328;2023-06-14T13:27:09;4.35;;;1.52;;
37455;SDS011;23316;50.718;7.328;2023-06-14T13:29:36;2.60;;;1.50;;
37455;SDS011;23316;50.718;7.328;2023-06-14T13:32:05;4.45;;;1.50;;
37455;SDS011;23316;50.718;7.328;2023-06-14T13:34:33;3.42;;;1.55;;
37455;SDS011;23316;50.718;7.328;2023-06-14T13:37:00;2.92;;;1.58;;
37455;SDS011;23316;50.718;7.328;2023-06-14T13:39:28;8.38;;;1.75;;
37455;SDS011;23316;50.718;7.328;2023-06-14T13:41:55;3.13;;;1.70;;
37455;SDS011;23316;50.718;7.328;2023-06-14T13:44:23;2.65;;;1.70;;
37455;SDS011;23316;50.718;7.328;2023-06-14T13:46:50;2.22;;;1.83;;
37455;SDS011;23316;50.718;7.328;2023-06-14T13:49:19;5.50;;;1.63;;
37455;SDS011;23316;50.718;7.328;2023-06-14T13:51:47;4.38;;;1.60;;
37455;SDS011;23316;50.718;7.328;2023-06-14T13:54:14;3.33;;;1.73;;
37455;SDS011;23316;50.718;7.328;2023-06-14T13:56:46;11.20;;;2.17;;
37455;SDS011;23316;50.718;7.328;2023-06-14T13:59:13;2.72;;;1.83;;
37455;SDS011;23316;50.718;7.328;2023-06-14T14:01:41;7.20;;;1.60;;
37455;SDS011;23316;50.718;7.328;2023-06-14T14:04:09;6.63;;;1.63;;
37455;SDS011;23316;50.718;7.328;2023-06-14T14:06:38;2.40;;;1.63;;
37455;SDS011;23316;50.718;7.328;2023-06-14T14:09:06;1.90;;;1.45;;
37455;SDS011;23316;50.718;7.328;2023-06-14T14:11:34;2.13;;;1.70;;
37455;SDS011;23316;50.718;7.328;2023-06-14T14:14:02;2.72;;;1.60;;
37455;SDS011;23316;50.718;7.328;2023-06-14T14:16:30;3.90;;;1.48;;
37455;SDS011;23316;50.718;7.328;2023-06-14T14:18:57;1.88;;;1.48;;
37455;SDS011;23316;50.718;7.328;2023-06-14T14:21:25;2.13;;;1.40;;
37455;SDS011;23316;50.718;7.328;2023-06-14T14:23:54;4.28;;;1.55;;
37455;SDS011;23316;50.718;7.328;2023-06-14T14:26:21;5.22;;;1.83;;
37455;SDS011;23316;50.718;7.328;2023-06-14T14:28:49;3.30;;;1.60;;
37455;SDS011;23316;50.718;7.328;2023-06-14T14:31:16;3.03;;;1.80;;
37455;SDS011;23316;50.718;7.328;2023-06-14T14:33:43;1.73;;;1.48;;
37455;SDS011;23316;50.718;7.328;2023-06-14T14:36:10;2.58;;;1.40;;
37455;SDS011;23316;50.718;7.328;2023-06-14T14:38:39;2.03;;;1.50;;
37455;SDS011;23316;50.718;7.328;2023-06-14T14:41:07;5.85;;;1.50;;
37455;SDS011;23316;50.718;7.328;2023-06-14T14:43:35;6.95;;;1.73;;
37455;SDS011;23316;50.718;7.328;2023-06-14T14:46:02;3.72;;;1.70;;
37455;SDS011;23316;50.718;7.328;2023-06-14T14:48:29;2.28;;;1.70;;
37455;SDS011;23316;50.718;7.328;2023-06-14T14:50:56;3.88;;;1.70;;
37455;SDS011;23316;50.718;7.328;2023-06-14T14:53:24;3.45;;;1.80;;
37455;SDS011;23316;50.718;7.328;2023-06-14T14:55:51;5.72;;;1.67;;
37455;SDS011;23316;50.718;7.328;2023-06-14T14:58:20;2.65;;;1.63;;
37455;SDS011;23316;50.718;7.328;2023-06-14T15:00:47;2.80;;;1.50;;